createdAt,value
2022-11-15T00:00:10.839Z,9.10
2022-11-15T00:03:16.849Z,9.10
2022-11-15T00:06:21.146Z,9.10
2022-11-15T00:09:25.442Z,9.10
2022-11-15T00:12:30.120Z,9.10
2022-11-15T00:15:41.909Z,9.10
2022-11-15T00:18:50.406Z,9.00
2022-11-15T00:21:55.120Z,9.10
2022-11-15T00:24:59.487Z,9.00
2022-11-15T00:28:04.460Z,9.00
2022-11-15T00:31:15.752Z,9.00
2022-11-15T00:34:20.095Z,9.00
2022-11-15T00:37:25.061Z,8.90
2022-11-15T00:40:30.387Z,8.90
2022-11-15T00:43:35.733Z,9.00
2022-11-15T00:46:40.255Z,9.00
2022-11-15T00:49:44.634Z,9.00
2022-11-15T00:52:49.548Z,9.00
2022-11-15T00:55:54.326Z,9.00
2022-11-15T00:58:58.840Z,9.00
2022-11-15T01:02:03.531Z,9.10
2022-11-15T01:05:08.796Z,9.00
2022-11-15T01:08:15.396Z,9.00
2022-11-15T01:11:19.789Z,9.00
2022-11-15T01:14:25.723Z,9.00
2022-11-15T01:17:31.717Z,9.00
2022-11-15T01:20:43.626Z,8.90
2022-11-15T01:23:48.192Z,8.90
2022-11-15T01:26:52.973Z,8.90
2022-11-15T01:29:57.678Z,8.90
2022-11-15T01:33:02.211Z,8.90
2022-11-15T01:36:08.745Z,8.90
2022-11-15T01:39:13.333Z,8.90
2022-11-15T01:42:19.552Z,8.90
2022-11-15T01:45:24.346Z,8.90
2022-11-15T01:48:36.103Z,8.90
2022-11-15T01:51:41.016Z,8.90
2022-11-15T01:54:45.968Z,8.90
2022-11-15T01:57:54.440Z,9.00
2022-11-15T02:00:58.955Z,9.00
2022-11-15T02:04:30.364Z,9.10
2022-11-15T02:07:36.916Z,9.10
2022-11-15T02:10:41.438Z,9.20
2022-11-15T02:13:46.606Z,9.20
2022-11-15T02:17:09.566Z,9.00
2022-11-15T02:20:48.328Z,9.00
2022-11-15T02:24:07.746Z,8.90
2022-11-15T02:27:47.591Z,8.90
2022-11-15T02:31:16.983Z,8.90
2022-11-15T02:34:44.316Z,8.90
2022-11-15T02:38:13.744Z,9.00
2022-11-15T02:41:49.333Z,8.90
2022-11-15T02:44:57.808Z,8.90
2022-11-15T02:48:03.394Z,8.90
2022-11-15T02:51:08.402Z,9.00
2022-11-15T02:54:22.364Z,9.00
2022-11-15T02:57:39.705Z,9.00
2022-11-15T03:00:55.319Z,9.00
2022-11-15T03:04:17.236Z,9.10
2022-11-15T03:07:36.395Z,9.20
2022-11-15T03:10:46.980Z,9.20
2022-11-15T03:14:09.463Z,9.20
2022-11-15T03:17:22.605Z,9.30
2022-11-15T03:20:29.050Z,9.40
2022-11-15T03:23:35.508Z,9.40
2022-11-15T03:26:42.140Z,9.50
2022-11-15T03:30:01.533Z,9.50
2022-11-15T03:33:07.429Z,9.50
2022-11-15T03:36:12.246Z,9.50
2022-11-15T03:39:20.623Z,9.50
2022-11-15T03:42:40.688Z,9.50
2022-11-15T03:45:52.102Z,9.50
2022-11-15T03:49:12.500Z,9.60
2022-11-15T03:52:20.045Z,9.60
2022-11-15T03:55:24.475Z,9.60
2022-11-15T03:58:29.083Z,9.60
2022-11-15T04:01:34.022Z,9.60
2022-11-15T04:04:38.685Z,9.60
2022-11-15T04:07:43.189Z,9.70
2022-11-15T04:10:50.503Z,9.60
2022-11-15T04:13:54.772Z,9.60
2022-11-15T04:16:59.366Z,9.70
2022-11-15T04:20:28.035Z,9.70
2022-11-15T04:23:50.997Z,9.80
2022-11-15T04:26:55.385Z,9.80
2022-11-15T04:30:00.189Z,9.80
2022-11-15T04:33:05.077Z,9.80
2022-11-15T04:36:28.153Z,9.90
2022-11-15T04:39:32.563Z,9.90
2022-11-15T04:42:37.103Z,10.00
2022-11-15T04:45:41.524Z,10.00
2022-11-15T04:48:46.185Z,10.00
2022-11-15T04:51:50.986Z,10.00
2022-11-15T04:54:55.443Z,10.00
2022-11-15T04:58:03.891Z,10.10
2022-11-15T05:01:13.165Z,10.00
2022-11-15T05:04:20.727Z,10.10
2022-11-15T05:07:25.222Z,10.10
2022-11-15T05:10:29.818Z,10.10
2022-11-15T05:13:34.974Z,10.00
2022-11-15T05:16:39.768Z,10.10
2022-11-15T05:19:45.611Z,10.10
2022-11-15T05:22:50.228Z,10.10
2022-11-15T05:25:59.309Z,10.10
2022-11-15T05:29:04.037Z,10.10
2022-11-15T05:32:10.003Z,10.10
2022-11-15T05:35:23.748Z,10.10
2022-11-15T05:38:28.686Z,10.10
2022-11-15T05:41:45.452Z,10.10
2022-11-15T05:44:51.007Z,10.10
2022-11-15T05:47:57.820Z,10.20
2022-11-15T05:51:03.658Z,10.20
2022-11-15T05:54:08.773Z,10.20
2022-11-15T05:57:13.590Z,10.20
2022-11-15T06:00:18.658Z,10.20
2022-11-15T06:03:22.942Z,10.20
2022-11-15T06:06:29.361Z,10.20
2022-11-15T06:09:34.069Z,10.20
2022-11-15T06:12:38.564Z,10.20
2022-11-15T06:15:44.394Z,10.20
2022-11-15T06:18:49.100Z,10.20
2022-11-15T06:21:54.043Z,10.20
2022-11-15T06:25:04.054Z,10.20
2022-11-15T06:28:09.753Z,10.20
2022-11-15T06:31:14.348Z,10.20
2022-11-15T06:34:18.899Z,10.20
2022-11-15T06:37:23.441Z,10.20
2022-11-15T06:40:28.194Z,10.20
2022-11-15T06:43:34.993Z,10.20
2022-11-15T06:46:39.600Z,10.30
2022-11-15T06:49:44.435Z,10.30
2022-11-15T06:52:48.957Z,10.30
2022-11-15T06:55:55.649Z,10.30
2022-11-15T06:59:00.399Z,10.30
2022-11-15T07:02:05.131Z,10.40
2022-11-15T07:05:09.963Z,10.50
2022-11-15T07:08:14.376Z,10.50
2022-11-15T07:11:18.975Z,10.50
2022-11-15T07:14:23.253Z,10.50
2022-11-15T07:17:28.020Z,10.40
2022-11-15T07:20:32.450Z,10.40
2022-11-15T07:23:40.514Z,10.50
2022-11-15T07:26:45.042Z,10.50
2022-11-15T07:29:49.896Z,10.50
2022-11-15T07:33:01.373Z,10.50
2022-11-15T07:36:07.332Z,10.50
2022-11-15T07:39:13.241Z,10.50
2022-11-15T07:42:36.409Z,10.60
2022-11-15T07:45:45.831Z,10.60
2022-11-15T07:48:50.108Z,10.60
2022-11-15T07:51:54.597Z,10.60
2022-11-15T07:54:59.134Z,10.60
2022-11-15T07:58:05.644Z,10.60
2022-11-15T08:01:11.430Z,10.70
2022-11-15T08:04:16.225Z,10.70
2022-11-15T08:07:22.041Z,10.70
2022-11-15T08:10:27.867Z,10.80
2022-11-15T08:13:32.709Z,10.80
2022-11-15T08:16:37.176Z,10.80
2022-11-15T08:19:41.789Z,10.90
2022-11-15T08:22:46.638Z,10.80
2022-11-15T08:25:51.339Z,10.80
2022-11-15T08:28:55.996Z,10.80
2022-11-15T08:32:00.237Z,10.80
2022-11-15T08:35:05.331Z,10.90
2022-11-15T08:38:09.784Z,10.90
2022-11-15T08:41:24.922Z,10.90
2022-11-15T08:44:29.714Z,10.90
2022-11-15T08:47:34.607Z,11.00
2022-11-15T08:50:38.998Z,11.00
2022-11-15T08:53:44.036Z,10.90
2022-11-15T08:56:48.861Z,11.00
2022-11-15T08:59:53.364Z,11.00
2022-11-15T09:02:57.984Z,11.00
2022-11-15T09:06:06.924Z,11.00
2022-11-15T09:09:11.401Z,11.00
2022-11-15T09:12:15.853Z,11.00
2022-11-15T09:15:20.910Z,11.00
2022-11-15T09:18:25.298Z,11.10
2022-11-15T09:21:30.765Z,11.00
2022-11-15T09:24:36.275Z,11.10
2022-11-15T09:27:40.908Z,11.10
2022-11-15T09:30:45.838Z,11.00
2022-11-15T09:33:50.208Z,11.00
2022-11-15T09:36:54.837Z,11.00
2022-11-15T09:39:59.253Z,11.10
2022-11-15T09:43:26.885Z,11.10
2022-11-15T09:46:52.745Z,11.10
2022-11-15T09:49:38.402Z,11.10
2022-11-15T09:52:41.386Z,11.20
2022-11-15T09:55:39.578Z,11.20
2022-11-15T09:58:46.311Z,11.30
2022-11-15T10:01:45.916Z,11.30
2022-11-15T10:04:32.819Z,11.20
2022-11-15T10:08:00.757Z,11.20
2022-11-15T10:11:00.538Z,11.30
2022-11-15T10:14:00.577Z,11.30
2022-11-15T10:17:03.648Z,11.40
2022-11-15T10:20:08.466Z,11.40
2022-11-15T10:22:57.449Z,11.40
2022-11-15T10:25:42.944Z,11.40
2022-11-15T10:28:32.710Z,11.40
2022-11-15T10:31:30.004Z,11.40
2022-11-15T10:34:21.592Z,11.50
2022-11-15T10:37:07.258Z,11.50
2022-11-15T10:40:07.848Z,11.50
2022-11-15T10:43:29.185Z,11.50
2022-11-15T10:49:31.518Z,11.60
2022-11-15T10:52:20.361Z,11.60
2022-11-15T10:55:12.254Z,11.60
2022-11-15T10:58:20.305Z,11.60
2022-11-15T11:01:25.545Z,11.50
2022-11-15T11:04:11.565Z,11.60
2022-11-15T11:06:59.487Z,11.60
2022-11-15T11:09:45.348Z,11.50
2022-11-15T11:12:34.435Z,11.60
2022-11-15T11:15:20.764Z,11.50
2022-11-15T11:18:22.001Z,11.60
2022-11-15T11:21:15.551Z,11.60
2022-11-15T11:24:11.663Z,11.60
2022-11-15T11:27:07.685Z,11.60
2022-11-15T11:30:08.911Z,11.60
2022-11-15T11:33:05.329Z,11.60
2022-11-15T11:36:22.164Z,11.60
2022-11-15T11:39:39.054Z,11.60
2022-11-15T11:42:33.845Z,11.60
2022-11-15T11:45:28.455Z,11.60
2022-11-15T11:48:20.552Z,11.50
2022-11-15T11:51:29.957Z,11.50
2022-11-15T11:54:32.602Z,11.60
2022-11-15T11:57:52.298Z,11.60
2022-11-15T12:00:50.506Z,11.60
2022-11-15T12:03:45.962Z,11.60
2022-11-15T12:06:42.351Z,11.50
2022-11-15T12:09:40.338Z,11.60
2022-11-15T12:12:55.349Z,11.60
2022-11-15T12:15:49.869Z,11.60
2022-11-15T12:18:35.898Z,11.70
2022-11-15T12:21:28.739Z,11.60
2022-11-15T12:24:29.560Z,11.50
2022-11-15T12:27:32.003Z,11.60
2022-11-15T12:30:22.898Z,11.50
2022-11-15T12:33:37.197Z,11.50
2022-11-15T12:36:22.926Z,11.50
2022-11-15T12:39:10.759Z,11.50
2022-11-15T12:41:56.339Z,11.60
2022-11-15T12:44:41.841Z,11.60
2022-11-15T12:47:28.503Z,11.60
2022-11-15T12:50:37.884Z,11.60
2022-11-15T12:53:28.675Z,11.60
2022-11-15T12:56:14.037Z,11.60
2022-11-15T12:59:03.284Z,11.60
2022-11-15T13:01:49.378Z,11.60
2022-11-15T13:04:35.201Z,11.60
2022-11-15T13:07:36.401Z,11.60
2022-11-15T13:10:28.633Z,11.60
2022-11-15T13:13:44.578Z,11.60
2022-11-15T13:16:31.375Z,11.60
2022-11-15T13:19:27.217Z,11.60
2022-11-15T13:22:31.787Z,11.60
2022-11-15T13:25:26.483Z,11.60
2022-11-15T13:28:18.841Z,11.60
2022-11-15T13:31:26.862Z,11.60
2022-11-15T13:34:50.993Z,11.60
2022-11-15T13:37:37.728Z,11.60
2022-11-15T13:40:34.001Z,11.60
2022-11-15T13:43:22.456Z,11.50
2022-11-15T13:46:12.506Z,11.50
2022-11-15T13:48:59.419Z,11.50
2022-11-15T13:51:58.274Z,11.40
2022-11-15T13:54:46.418Z,11.40
2022-11-15T13:57:55.209Z,11.40
2022-11-15T14:00:45.921Z,11.40
2022-11-15T14:03:43.113Z,11.40
2022-11-15T14:06:31.580Z,11.40
2022-11-15T14:09:46.219Z,11.40
2022-11-15T14:12:36.383Z,11.40
2022-11-15T14:15:39.660Z,11.40
2022-11-15T14:18:47.334Z,11.40
2022-11-15T14:21:33.588Z,11.40
2022-11-15T14:24:23.079Z,11.40
2022-11-15T14:27:19.400Z,11.40
2022-11-15T14:30:05.827Z,11.40
2022-11-15T14:32:51.900Z,11.40
2022-11-15T14:35:39.848Z,11.40
2022-11-15T14:38:26.712Z,11.40
2022-11-15T14:41:33.610Z,11.40
2022-11-15T14:44:21.550Z,11.40
2022-11-15T14:47:07.537Z,11.40
2022-11-15T14:49:53.687Z,11.40
2022-11-15T14:52:39.450Z,11.40
2022-11-15T14:55:36.134Z,11.40
2022-11-15T14:58:21.825Z,11.30
2022-11-15T15:01:24.961Z,11.30
2022-11-15T15:04:11.769Z,11.30
2022-11-15T15:06:57.343Z,11.20
2022-11-15T15:09:43.552Z,11.20
2022-11-15T15:12:30.189Z,11.20
2022-11-15T15:15:27.414Z,11.20
2022-11-15T15:18:12.879Z,11.10
2022-11-15T15:21:08.430Z,11.10
2022-11-15T15:23:57.863Z,11.10
2022-11-15T15:26:45.488Z,11.10
2022-11-15T15:29:31.225Z,11.10
2022-11-15T15:32:17.529Z,11.10
2022-11-15T15:35:03.033Z,11.10
2022-11-15T15:37:49.927Z,11.10
2022-11-15T15:40:35.215Z,11.00
2022-11-15T15:43:20.869Z,11.00
2022-11-15T15:46:18.883Z,11.00
2022-11-15T15:49:04.836Z,11.00
2022-11-15T15:51:50.414Z,11.00
2022-11-15T15:54:37.321Z,11.00
2022-11-15T15:57:22.871Z,11.00
2022-11-15T16:00:09.991Z,11.00
2022-11-15T16:03:00.065Z,11.00
2022-11-15T16:05:46.163Z,11.00
2022-11-15T16:08:42.411Z,11.00
2022-11-15T16:11:33.343Z,10.90
2022-11-15T16:14:19.085Z,10.90
2022-11-15T16:17:04.608Z,10.90
2022-11-15T16:19:50.095Z,10.90
2022-11-15T16:22:35.709Z,10.90
2022-11-15T16:25:21.445Z,10.90
2022-11-15T16:28:33.518Z,10.90
2022-11-15T16:31:22.139Z,10.80
2022-11-15T16:34:07.820Z,10.90
2022-11-15T16:36:54.392Z,10.80
2022-11-15T16:39:40.056Z,10.80
2022-11-15T16:42:25.664Z,10.70
2022-11-15T16:45:14.550Z,10.70
2022-11-15T16:48:00.373Z,10.70
2022-11-15T16:50:46.373Z,10.70
2022-11-15T16:53:32.162Z,10.70
2022-11-15T16:56:27.580Z,10.60
2022-11-15T16:59:17.549Z,10.60
2022-11-15T17:02:03.171Z,10.70
2022-11-15T17:04:48.929Z,10.80
2022-11-15T17:07:34.426Z,10.70
2022-11-15T17:10:24.299Z,10.80
2022-11-15T17:13:13.335Z,10.80
2022-11-15T17:16:16.403Z,10.80
2022-11-15T17:19:02.221Z,10.80
2022-11-15T17:21:51.803Z,10.80
2022-11-15T17:24:37.217Z,10.80
2022-11-15T17:27:23.820Z,10.80
2022-11-15T17:30:13.137Z,10.90
2022-11-15T17:33:01.026Z,10.90
2022-11-15T17:35:46.677Z,10.90
2022-11-15T17:38:32.968Z,10.90
2022-11-15T17:41:21.084Z,10.90
2022-11-15T17:44:07.127Z,10.90
2022-11-15T17:46:52.542Z,11.00
2022-11-15T17:49:40.766Z,10.90
2022-11-15T17:52:27.446Z,10.90
2022-11-15T17:55:13.065Z,10.90
2022-11-15T17:57:58.540Z,10.90
2022-11-15T18:00:47.371Z,10.80
2022-11-15T18:03:37.456Z,10.90
2022-11-15T18:06:24.648Z,10.90
2022-11-15T18:09:10.660Z,10.90
2022-11-15T18:11:56.402Z,10.80
2022-11-15T18:14:42.277Z,10.90
2022-11-15T18:17:28.468Z,10.90
2022-11-15T18:20:14.221Z,10.90
2022-11-15T18:22:59.662Z,10.90
2022-11-15T18:25:51.776Z,10.90
2022-11-15T18:28:39.298Z,10.80
2022-11-15T18:31:27.356Z,10.80
2022-11-15T18:34:13.175Z,10.80
2022-11-15T18:36:59.260Z,10.80
2022-11-15T18:39:46.530Z,10.80
2022-11-15T18:42:34.385Z,10.70
2022-11-15T18:45:24.013Z,10.80
2022-11-15T18:48:10.251Z,10.80
2022-11-15T18:51:05.161Z,10.80
2022-11-15T18:53:55.629Z,10.80
2022-11-15T18:56:41.530Z,10.80
2022-11-15T18:59:27.848Z,10.70
2022-11-15T19:02:13.768Z,10.80
2022-11-15T19:04:59.077Z,10.80
2022-11-15T19:07:49.529Z,10.80
2022-11-15T19:10:35.351Z,10.80
2022-11-15T19:13:21.125Z,10.80
2022-11-15T19:16:08.228Z,10.80
2022-11-15T19:18:55.577Z,10.70
2022-11-15T19:21:41.573Z,10.80
2022-11-15T19:24:27.848Z,10.80
2022-11-15T19:27:13.651Z,10.70
2022-11-15T19:29:58.988Z,10.70
2022-11-15T19:32:44.745Z,10.70
2022-11-15T19:35:30.103Z,10.70
2022-11-15T19:38:15.857Z,10.70
2022-11-15T19:41:05.373Z,10.70
2022-11-15T19:43:51.589Z,10.70
2022-11-15T19:46:38.270Z,10.80
2022-11-15T19:49:24.231Z,10.80
2022-11-15T19:52:12.342Z,10.80
2022-11-15T19:54:57.981Z,10.80
2022-11-15T19:57:43.716Z,10.80
2022-11-15T20:00:29.261Z,10.80
2022-11-15T20:03:15.020Z,10.80
2022-11-15T20:06:05.938Z,10.80
2022-11-15T20:08:52.139Z,10.80
2022-11-15T20:11:39.377Z,10.80
2022-11-15T20:14:25.309Z,10.70
2022-11-15T20:17:10.576Z,10.70
2022-11-15T20:19:56.140Z,10.70
2022-11-15T20:22:41.724Z,10.70
2022-11-15T20:25:27.373Z,10.70
2022-11-15T20:28:25.589Z,10.60
2022-11-15T20:31:11.514Z,10.60
2022-11-15T20:33:57.438Z,10.50
2022-11-15T20:36:42.901Z,10.50
2022-11-15T20:39:28.650Z,10.60
2022-11-15T20:42:14.344Z,10.50
2022-11-15T20:45:00.079Z,10.50
2022-11-15T20:47:45.773Z,10.60
2022-11-15T20:50:46.149Z,10.60
2022-11-15T20:53:31.927Z,10.70
2022-11-15T20:56:20.580Z,10.70
2022-11-15T20:59:06.647Z,10.70
2022-11-15T21:01:52.093Z,10.70
2022-11-15T21:04:37.863Z,10.60
2022-11-15T21:07:23.684Z,10.70
2022-11-15T21:10:28.398Z,10.60
2022-11-15T21:13:14.308Z,10.60
2022-11-15T21:16:00.559Z,10.60
2022-11-15T21:18:46.084Z,10.60
2022-11-15T21:21:31.785Z,10.60
2022-11-15T21:24:18.144Z,10.70
2022-11-15T21:27:04.110Z,10.70
2022-11-15T21:29:49.546Z,10.70
2022-11-15T21:32:35.352Z,10.70
2022-11-15T21:35:21.040Z,10.70
2022-11-15T21:38:06.905Z,10.80
2022-11-15T21:40:53.528Z,10.70
2022-11-15T21:43:39.126Z,10.60
2022-11-15T21:46:24.643Z,10.70
2022-11-15T21:49:10.398Z,10.60
2022-11-15T21:51:55.738Z,10.60
2022-11-15T21:54:44.378Z,10.50
2022-11-15T21:57:30.225Z,10.50
2022-11-15T22:00:36.314Z,10.50
2022-11-15T22:03:21.688Z,10.50
2022-11-15T22:06:09.125Z,10.50
2022-11-15T22:08:56.565Z,10.60
2022-11-15T22:11:42.317Z,10.50
2022-11-15T22:14:28.180Z,10.50
2022-11-15T22:17:13.891Z,10.50
2022-11-15T22:20:07.771Z,10.50
2022-11-15T22:23:05.652Z,10.60
2022-11-15T22:25:52.092Z,10.70
2022-11-15T22:28:38.045Z,10.70
2022-11-15T22:31:23.848Z,10.60
2022-11-15T22:34:09.516Z,10.60
2022-11-15T22:37:21.615Z,10.60
2022-11-15T22:40:01.245Z,10.60
2022-11-15T22:42:46.911Z,10.60
2022-11-15T22:45:33.178Z,10.60
2022-11-15T22:48:30.075Z,10.60
2022-11-15T22:51:15.537Z,10.60
2022-11-15T22:54:01.118Z,10.60
2022-11-15T22:56:46.573Z,10.60
2022-11-15T22:59:32.229Z,10.60
2022-11-15T23:02:17.769Z,10.60
2022-11-15T23:05:03.819Z,10.60
2022-11-15T23:07:49.880Z,10.70
2022-11-15T23:10:53.962Z,10.70
2022-11-15T23:13:39.397Z,10.70
2022-11-15T23:16:26.161Z,10.80
2022-11-15T23:19:12.920Z,10.70
2022-11-15T23:22:17.156Z,10.80
2022-11-15T23:25:02.843Z,10.70
2022-11-15T23:27:48.313Z,10.70
2022-11-15T23:30:54.074Z,10.70
2022-11-15T23:33:57.781Z,10.70
2022-11-15T23:36:43.736Z,10.70
2022-11-15T23:39:29.429Z,10.70
2022-11-15T23:42:19.716Z,10.80
2022-11-15T23:45:07.032Z,10.80
2022-11-15T23:47:57.035Z,10.80
2022-11-15T23:50:48.069Z,10.80
2022-11-15T23:53:33.795Z,10.80
2022-11-15T23:56:20.662Z,10.80
2022-11-15T23:59:06.794Z,10.80
